createdAt,value
2023-05-22T00:00:15.754Z,2.22
2023-05-22T00:02:44.440Z,1.95
2023-05-22T00:05:13.283Z,1.83
2023-05-22T00:07:43.277Z,1.95
2023-05-22T00:10:13.498Z,1.73
2023-05-22T00:12:41.533Z,2.08
2023-05-22T00:15:11.434Z,1.60
2023-05-22T00:17:39.696Z,1.80
2023-05-22T00:20:10.792Z,2.05
2023-05-22T00:22:39.008Z,1.90
2023-05-22T00:25:08.527Z,1.70
2023-05-22T00:27:38.257Z,1.73
2023-05-22T00:30:08.493Z,1.70
2023-05-22T00:32:36.933Z,1.73
2023-05-22T00:35:05.285Z,1.50
2023-05-22T00:37:33.320Z,1.60
2023-05-22T00:40:01.315Z,1.75
2023-05-22T00:42:29.613Z,1.70
2023-05-22T00:44:59.098Z,1.75
2023-05-22T00:47:27.253Z,1.60
2023-05-22T00:49:55.811Z,1.70
2023-05-22T00:52:24.325Z,1.77
2023-05-22T00:54:55.033Z,1.85
2023-05-22T00:57:24.574Z,1.70
2023-05-22T00:59:53.031Z,1.60
2023-05-22T01:02:23.135Z,1.80
2023-05-22T01:04:51.141Z,1.90
2023-05-22T01:07:19.377Z,1.70
2023-05-22T01:09:47.854Z,1.95
2023-05-22T01:12:25.540Z,1.90
2023-05-22T01:15:01.065Z,1.95
2023-05-22T01:17:38.134Z,1.83
2023-05-22T01:20:14.375Z,1.77
2023-05-22T01:23:08.883Z,1.83
2023-05-22T01:26:02.804Z,1.90
2023-05-22T01:29:06.208Z,1.80
2023-05-22T01:31:40.456Z,1.73
2023-05-22T01:34:12.615Z,2.15
2023-05-22T01:36:43.067Z,1.85
2023-05-22T01:39:12.660Z,1.70
2023-05-22T01:41:42.277Z,1.88
2023-05-22T01:44:12.101Z,1.55
2023-05-22T01:46:41.467Z,1.73
2023-05-22T01:49:10.459Z,1.88
2023-05-22T01:51:48.984Z,2.05
2023-05-22T01:54:24.143Z,1.83
2023-05-22T01:56:56.195Z,2.00
2023-05-22T01:59:32.911Z,1.70
2023-05-22T02:02:08.053Z,1.70
2023-05-22T02:04:40.420Z,2.03
2023-05-22T02:07:12.594Z,2.28
2023-05-22T02:09:42.784Z,1.75
2023-05-22T02:12:14.124Z,1.90
2023-05-22T02:14:43.805Z,1.75
2023-05-22T02:17:13.107Z,1.88
2023-05-22T02:19:41.070Z,1.95
2023-05-22T02:22:13.802Z,1.73
2023-05-22T02:24:42.785Z,1.83
2023-05-22T02:27:10.833Z,2.17
2023-05-22T02:29:39.022Z,1.80
2023-05-22T02:32:07.821Z,1.85
2023-05-22T02:34:37.964Z,1.58
2023-05-22T02:37:07.209Z,1.92
2023-05-22T02:39:35.235Z,2.00
2023-05-22T02:42:03.676Z,1.75
2023-05-22T02:44:31.788Z,1.73
2023-05-22T02:47:00.365Z,1.77
2023-05-22T02:49:28.508Z,1.83
2023-05-22T02:51:57.863Z,1.90
2023-05-22T02:54:26.082Z,2.33
2023-05-22T02:56:54.173Z,1.88
2023-05-22T02:59:22.231Z,1.50
2023-05-22T03:01:50.854Z,2.38
2023-05-22T03:04:18.861Z,2.08
2023-05-22T03:06:46.995Z,2.05
2023-05-22T03:09:16.548Z,1.77
2023-05-22T03:11:45.722Z,1.95
2023-05-22T03:14:13.737Z,1.80
2023-05-22T03:16:42.407Z,1.95
2023-05-22T03:19:11.552Z,1.90
2023-05-22T03:21:39.753Z,2.30
2023-05-22T03:24:09.138Z,2.20
2023-05-22T03:26:38.502Z,2.17
2023-05-22T03:29:09.937Z,1.83
2023-05-22T03:31:41.328Z,2.25
2023-05-22T03:34:12.409Z,1.70
2023-05-22T03:36:42.059Z,2.13
2023-05-22T03:39:10.078Z,2.45
2023-05-22T03:41:44.603Z,2.30
2023-05-22T03:44:12.801Z,1.88
2023-05-22T03:46:40.853Z,2.00
2023-05-22T03:49:08.949Z,1.83
2023-05-22T03:51:38.404Z,2.05
2023-05-22T03:54:06.813Z,2.60
2023-05-22T03:56:34.791Z,2.03
2023-05-22T03:59:05.231Z,2.50
2023-05-22T04:01:33.286Z,2.17
2023-05-22T04:04:02.063Z,2.58
2023-05-22T04:06:32.957Z,2.17
2023-05-22T04:09:01.937Z,2.50
2023-05-22T04:11:32.225Z,2.17
2023-05-22T04:14:05.791Z,2.33
2023-05-22T04:16:33.847Z,2.28
2023-05-22T04:19:03.378Z,2.78
2023-05-22T04:21:34.175Z,2.30
2023-05-22T04:24:06.989Z,2.28
2023-05-22T04:26:36.084Z,2.78
2023-05-22T04:29:10.265Z,2.50
2023-05-22T04:31:38.471Z,2.40
2023-05-22T04:34:07.836Z,2.35
2023-05-22T04:36:35.916Z,2.83
2023-05-22T04:39:04.157Z,2.40
2023-05-22T04:41:32.515Z,2.13
2023-05-22T04:44:00.552Z,2.45
2023-05-22T04:46:30.035Z,2.30
2023-05-22T04:49:02.119Z,2.50
2023-05-22T04:51:31.173Z,2.20
2023-05-22T04:53:59.478Z,2.42
2023-05-22T04:56:36.127Z,2.63
2023-05-22T04:59:08.850Z,2.80
2023-05-22T05:01:38.849Z,3.20
2023-05-22T05:04:06.997Z,3.33
2023-05-22T05:06:35.885Z,3.17
2023-05-22T05:09:04.567Z,3.53
2023-05-22T05:11:32.707Z,3.50
2023-05-22T05:14:00.749Z,3.63
2023-05-22T05:16:30.269Z,3.33
2023-05-22T05:18:59.758Z,3.55
2023-05-22T05:21:28.573Z,2.90
2023-05-22T05:24:01.004Z,2.65
2023-05-22T05:26:29.111Z,3.45
2023-05-22T05:28:57.537Z,2.90
2023-05-22T05:31:33.017Z,2.55
2023-05-22T05:34:34.808Z,2.35
2023-05-22T05:37:11.864Z,2.92
2023-05-22T05:39:40.150Z,2.38
2023-05-22T05:42:10.263Z,2.55
2023-05-22T05:44:38.469Z,2.40
2023-05-22T05:47:08.548Z,2.80
2023-05-22T05:49:38.366Z,2.63
2023-05-22T05:52:08.013Z,2.03
2023-05-22T05:54:37.224Z,2.70
2023-05-22T05:57:12.506Z,3.15
2023-05-22T05:59:40.530Z,2.28
2023-05-22T06:02:37.648Z,2.05
2023-05-22T06:05:09.202Z,2.00
2023-05-22T06:07:40.008Z,2.28
2023-05-22T06:10:11.914Z,2.20
2023-05-22T06:12:52.804Z,1.90
2023-05-22T06:15:21.234Z,1.80
2023-05-22T06:17:49.299Z,2.00
2023-05-22T06:20:18.998Z,2.25
2023-05-22T06:22:47.015Z,2.28
2023-05-22T06:25:15.130Z,2.50
2023-05-22T06:27:43.176Z,2.08
2023-05-22T06:30:12.180Z,1.83
2023-05-22T06:32:40.849Z,2.00
2023-05-22T06:35:10.364Z,2.08
2023-05-22T06:37:39.728Z,1.95
2023-05-22T06:40:10.122Z,2.03
2023-05-22T06:42:44.911Z,2.50
2023-05-22T06:45:31.610Z,1.95
2023-05-22T06:48:19.885Z,1.98
2023-05-22T06:51:26.816Z,1.48
2023-05-22T06:54:07.313Z,1.83
2023-05-22T06:56:37.678Z,1.83
2023-05-22T06:59:11.975Z,1.88
2023-05-22T07:02:03.377Z,2.05
2023-05-22T07:04:54.497Z,2.00
2023-05-22T07:07:29.684Z,2.13
2023-05-22T07:09:59.564Z,1.40
2023-05-22T07:12:29.671Z,1.70
2023-05-22T07:15:00.037Z,1.80
2023-05-22T07:17:28.442Z,1.80
2023-05-22T07:19:57.705Z,1.80
2023-05-22T07:22:26.712Z,1.77
2023-05-22T07:24:56.546Z,2.28
2023-05-22T07:27:30.956Z,1.70
2023-05-22T07:30:00.012Z,1.98
2023-05-22T07:32:28.125Z,1.75
2023-05-22T07:34:57.482Z,1.52
2023-05-22T07:37:25.907Z,1.90
2023-05-22T07:39:54.003Z,1.73
2023-05-22T07:42:22.079Z,1.80
2023-05-22T07:44:56.298Z,1.50
2023-05-22T07:47:26.435Z,1.75
2023-05-22T07:49:54.952Z,2.13
2023-05-22T07:52:23.836Z,1.80
2023-05-22T07:54:53.087Z,1.48
2023-05-22T07:57:23.012Z,1.65
2023-05-22T07:59:52.063Z,2.13
2023-05-22T08:02:22.477Z,1.83
2023-05-22T08:04:50.720Z,1.95
2023-05-22T08:07:18.704Z,1.80
2023-05-22T08:09:46.961Z,2.28
2023-05-22T08:12:14.922Z,1.40
2023-05-22T08:14:42.991Z,1.58
2023-05-22T08:17:11.106Z,1.92
2023-05-22T08:19:41.089Z,1.83
2023-05-22T08:22:09.361Z,1.90
2023-05-22T08:24:37.406Z,1.58
2023-05-22T08:27:05.809Z,1.73
2023-05-22T08:29:33.999Z,1.70
2023-05-22T08:32:02.256Z,1.85
2023-05-22T08:34:30.349Z,2.10
2023-05-22T08:37:00.167Z,1.80
2023-05-22T08:39:28.419Z,1.63
2023-05-22T08:41:56.648Z,1.63
2023-05-22T08:44:25.259Z,1.52
2023-05-22T08:46:53.660Z,1.42
2023-05-22T08:49:24.022Z,1.55
2023-05-22T08:51:57.675Z,1.95
2023-05-22T08:54:28.088Z,1.60
2023-05-22T08:56:57.625Z,1.65
2023-05-22T08:59:26.331Z,1.38
2023-05-22T09:01:54.975Z,1.42
2023-05-22T09:04:24.242Z,1.80
2023-05-22T09:06:52.767Z,1.67
2023-05-22T09:09:21.201Z,1.83
2023-05-22T09:11:50.812Z,1.88
2023-05-22T09:14:19.998Z,1.60
2023-05-22T09:16:49.647Z,2.08
2023-05-22T09:19:17.733Z,1.75
2023-05-22T09:21:45.825Z,1.98
2023-05-22T09:24:13.910Z,1.80
2023-05-22T09:26:42.261Z,2.13
2023-05-22T09:29:11.572Z,1.92
2023-05-22T09:31:44.622Z,2.53
2023-05-22T09:34:15.816Z,1.83
2023-05-22T09:36:44.438Z,1.95
2023-05-22T09:39:12.519Z,2.10
2023-05-22T09:41:41.435Z,1.80
2023-05-22T09:44:17.402Z,2.00
2023-05-22T09:46:48.046Z,1.58
2023-05-22T09:49:17.078Z,1.85
2023-05-22T09:51:48.805Z,1.80
2023-05-22T09:54:18.117Z,1.70
2023-05-22T09:56:50.226Z,2.08
2023-05-22T09:59:23.616Z,1.65
2023-05-22T10:01:51.957Z,1.73
2023-05-22T10:04:23.098Z,1.77
2023-05-22T10:06:52.777Z,1.88
2023-05-22T10:09:25.144Z,2.05
2023-05-22T10:11:56.194Z,2.30
2023-05-22T10:14:28.178Z,1.95
2023-05-22T10:17:02.121Z,1.83
2023-05-22T10:19:32.810Z,1.88
2023-05-22T10:22:02.127Z,2.03
2023-05-22T10:24:30.984Z,1.90
2023-05-22T10:26:59.113Z,1.98
2023-05-22T10:29:35.287Z,1.77
2023-05-22T10:32:11.291Z,1.73
2023-05-22T10:34:55.117Z,2.60
2023-05-22T10:37:38.731Z,2.15
2023-05-22T10:40:12.244Z,2.28
2023-05-22T10:42:41.460Z,1.85
2023-05-22T10:45:12.301Z,1.88
2023-05-22T10:47:41.393Z,1.95
2023-05-22T10:50:11.498Z,2.45
2023-05-22T10:52:40.819Z,2.03
2023-05-22T10:55:09.777Z,1.80
2023-05-22T10:57:39.395Z,2.10
2023-05-22T11:00:11.333Z,2.08
2023-05-22T11:02:44.509Z,1.80
2023-05-22T11:05:36.526Z,2.05
2023-05-22T11:08:12.030Z,2.20
2023-05-22T11:10:58.388Z,2.22
2023-05-22T11:13:29.246Z,2.38
2023-05-22T11:15:59.204Z,2.72
2023-05-22T11:18:30.093Z,2.38
2023-05-22T11:21:00.619Z,2.28
2023-05-22T11:23:28.818Z,2.38
2023-05-22T11:25:56.854Z,2.20
2023-05-22T11:28:25.565Z,2.25
2023-05-22T11:30:55.004Z,2.85
2023-05-22T11:33:25.208Z,2.28
2023-05-22T11:35:54.990Z,2.00
2023-05-22T11:38:23.035Z,1.88
2023-05-22T11:40:53.184Z,1.80
2023-05-22T11:43:31.513Z,2.28
2023-05-22T11:46:02.682Z,2.13
2023-05-22T11:48:32.129Z,1.77
2023-05-22T11:51:00.549Z,2.47
2023-05-22T11:53:28.626Z,2.10
2023-05-22T11:55:56.593Z,2.40
2023-05-22T11:58:29.640Z,1.80
2023-05-22T12:01:02.651Z,2.60
2023-05-22T12:03:33.230Z,2.20
2023-05-22T12:06:02.791Z,2.35
2023-05-22T12:08:31.181Z,2.08
2023-05-22T12:10:59.374Z,2.40
2023-05-22T12:13:29.072Z,2.60
2023-05-22T12:16:00.362Z,2.03
2023-05-22T12:18:28.816Z,2.47
2023-05-22T12:20:58.158Z,2.00
2023-05-22T12:23:26.998Z,2.40
2023-05-22T12:26:02.318Z,1.80
2023-05-22T12:28:32.988Z,2.30
2023-05-22T12:31:01.358Z,2.38
2023-05-22T12:33:30.195Z,2.35
2023-05-22T12:35:59.652Z,2.15
2023-05-22T12:38:28.464Z,2.17
2023-05-22T12:40:56.751Z,2.10
2023-05-22T12:43:26.486Z,2.05
2023-05-22T12:45:54.653Z,2.00
2023-05-22T12:48:22.947Z,2.53
2023-05-22T12:50:51.068Z,2.28
2023-05-22T12:53:20.822Z,2.25
2023-05-22T12:55:48.835Z,2.38
2023-05-22T12:58:16.854Z,2.25
2023-05-22T13:00:44.925Z,2.22
2023-05-22T13:03:13.189Z,2.40
2023-05-22T13:05:42.081Z,2.35
2023-05-22T13:08:10.389Z,1.98
2023-05-22T13:10:39.764Z,2.30
2023-05-22T13:13:07.741Z,2.20
2023-05-22T13:15:36.202Z,2.17
2023-05-22T13:18:04.605Z,2.10
2023-05-22T13:20:32.804Z,1.88
2023-05-22T13:23:01.119Z,2.30
2023-05-22T13:25:29.285Z,2.38
2023-05-22T13:27:59.852Z,2.42
2023-05-22T13:30:28.451Z,2.28
2023-05-22T13:32:56.744Z,2.45
2023-05-22T13:35:25.413Z,2.17
2023-05-22T13:37:53.443Z,2.38
2023-05-22T13:40:21.657Z,2.53
2023-05-22T13:42:49.697Z,2.17
2023-05-22T13:45:19.186Z,2.30
2023-05-22T13:47:47.332Z,2.33
2023-05-22T13:50:15.359Z,2.00
2023-05-22T13:52:43.283Z,2.50
2023-05-22T13:55:11.468Z,1.98
2023-05-22T13:57:40.674Z,2.55
2023-05-22T14:00:10.115Z,2.10
2023-05-22T14:02:39.724Z,2.05
2023-05-22T14:05:09.282Z,2.00
2023-05-22T14:07:37.345Z,2.15
2023-05-22T14:10:05.906Z,2.00
2023-05-22T14:12:34.051Z,2.40
2023-05-22T14:15:02.419Z,2.25
2023-05-22T14:17:30.526Z,1.90
2023-05-22T14:20:00.155Z,2.22
2023-05-22T14:22:28.316Z,2.10
2023-05-22T14:24:56.949Z,2.22
2023-05-22T14:27:24.952Z,1.70
2023-05-22T14:29:52.974Z,2.15
2023-05-22T14:32:21.565Z,2.17
2023-05-22T14:34:49.625Z,1.90
2023-05-22T14:37:19.772Z,1.90
2023-05-22T14:39:47.963Z,2.30
2023-05-22T14:42:15.966Z,1.90
2023-05-22T14:44:44.013Z,2.05
2023-05-22T14:47:11.985Z,1.92
2023-05-22T14:49:39.976Z,2.03
2023-05-22T14:52:07.884Z,2.10
2023-05-22T14:54:37.467Z,2.55
2023-05-22T14:57:05.667Z,2.05
2023-05-22T14:59:33.871Z,1.90
2023-05-22T15:02:01.998Z,2.45
2023-05-22T15:04:30.465Z,2.10
2023-05-22T15:06:58.637Z,2.00
2023-05-22T15:09:26.663Z,2.00
2023-05-22T15:11:56.203Z,1.88
2023-05-22T15:14:24.162Z,1.83
2023-05-22T15:16:52.284Z,2.05
2023-05-22T15:19:20.367Z,1.83
2023-05-22T15:21:48.396Z,2.05
2023-05-22T15:24:16.963Z,2.10
2023-05-22T15:26:45.069Z,2.10
2023-05-22T15:29:14.385Z,1.52
2023-05-22T15:31:42.526Z,2.00
2023-05-22T15:34:11.165Z,1.80
2023-05-22T15:36:40.540Z,1.60
2023-05-22T15:39:08.605Z,1.60
2023-05-22T15:41:36.592Z,2.15
2023-05-22T15:44:04.752Z,1.98
2023-05-22T15:46:34.119Z,1.75
2023-05-22T15:49:02.164Z,2.28
2023-05-22T15:51:31.001Z,1.83
2023-05-22T15:53:59.306Z,1.70
2023-05-22T15:56:27.671Z,1.83
2023-05-22T15:58:56.542Z,1.98
2023-05-22T16:01:24.580Z,1.63
2023-05-22T16:03:54.016Z,2.15
2023-05-22T16:06:23.308Z,3.35
2023-05-22T16:08:51.286Z,6.15
2023-05-22T16:11:19.484Z,15.38
2023-05-22T16:13:47.684Z,19.00
2023-05-22T16:16:16.464Z,13.02
2023-05-22T16:18:44.822Z,12.25
2023-05-22T16:21:14.250Z,9.85
2023-05-22T16:23:42.144Z,8.23
2023-05-22T16:26:10.070Z,7.85
2023-05-22T16:28:38.054Z,6.00
2023-05-22T16:31:07.250Z,5.00
2023-05-22T16:33:37.378Z,3.92
2023-05-22T16:36:05.852Z,4.13
2023-05-22T16:38:35.381Z,3.95
2023-05-22T16:41:03.336Z,3.40
2023-05-22T16:43:31.286Z,3.30
2023-05-22T16:45:59.345Z,3.92
2023-05-22T16:48:27.378Z,2.55
2023-05-22T16:50:55.454Z,2.70
2023-05-22T16:53:23.476Z,2.30
2023-05-22T16:55:52.773Z,2.75
2023-05-22T16:58:21.732Z,2.20
2023-05-22T17:00:49.847Z,2.33
2023-05-22T17:03:18.065Z,2.00
2023-05-22T17:05:47.373Z,2.20
2023-05-22T17:08:15.360Z,1.92
2023-05-22T17:10:43.363Z,2.10
2023-05-22T17:13:20.709Z,2.03
2023-05-22T17:15:49.173Z,1.77
2023-05-22T17:18:19.711Z,1.70
2023-05-22T17:20:47.895Z,1.75
2023-05-22T17:23:15.897Z,1.50
2023-05-22T17:25:46.548Z,2.20
2023-05-22T17:28:16.498Z,1.85
2023-05-22T17:30:46.099Z,2.10
2023-05-22T17:33:14.450Z,1.75
2023-05-22T17:35:43.266Z,1.60
2023-05-22T17:38:11.287Z,1.52
2023-05-22T17:40:45.381Z,1.73
2023-05-22T17:43:14.045Z,1.73
2023-05-22T17:45:44.592Z,1.33
2023-05-22T17:48:14.600Z,1.40
2023-05-22T17:50:42.907Z,1.60
2023-05-22T17:53:11.005Z,1.70
2023-05-22T17:55:38.902Z,1.95
2023-05-22T17:58:07.098Z,1.48
2023-05-22T18:00:35.112Z,1.85
2023-05-22T18:03:04.662Z,2.00
2023-05-22T18:05:32.721Z,1.90
2023-05-22T18:08:00.897Z,1.77
2023-05-22T18:10:29.223Z,1.92
2023-05-22T18:12:57.517Z,2.00
2023-05-22T18:15:25.808Z,1.75
2023-05-22T18:17:53.857Z,1.80
2023-05-22T18:20:23.149Z,1.80
2023-05-22T18:22:51.389Z,2.10
2023-05-22T18:25:19.335Z,1.95
2023-05-22T18:27:47.864Z,1.92
2023-05-22T18:30:16.317Z,2.08
2023-05-22T18:32:44.575Z,2.13
2023-05-22T18:35:12.684Z,1.90
2023-05-22T18:37:42.063Z,1.60
2023-05-22T18:40:11.482Z,2.08
2023-05-22T18:42:43.258Z,2.20
2023-05-22T18:45:12.418Z,1.83
2023-05-22T18:47:40.471Z,1.98
2023-05-22T18:50:09.522Z,1.90
2023-05-22T18:52:37.957Z,1.75
2023-05-22T18:55:08.462Z,1.70
2023-05-22T18:57:36.446Z,1.70
2023-05-22T19:00:04.812Z,1.45
2023-05-22T19:02:32.829Z,1.58
2023-05-22T19:05:01.080Z,1.60
2023-05-22T19:07:29.124Z,1.75
2023-05-22T19:09:57.185Z,1.70
2023-05-22T19:12:31.546Z,1.83
2023-05-22T19:14:59.903Z,1.60
2023-05-22T19:17:27.839Z,1.70
2023-05-22T19:19:56.039Z,1.65
2023-05-22T19:22:24.270Z,1.80
2023-05-22T19:24:52.388Z,1.60
2023-05-22T19:27:20.412Z,1.45
2023-05-22T19:29:49.800Z,1.55
2023-05-22T19:32:17.814Z,1.58
2023-05-22T19:34:46.424Z,1.48
2023-05-22T19:37:14.442Z,1.70
2023-05-22T19:39:42.320Z,1.80
2023-05-22T19:42:11.249Z,1.52
2023-05-22T19:44:39.416Z,1.85
2023-05-22T19:47:09.134Z,1.42
2023-05-22T19:49:37.361Z,1.45
2023-05-22T19:52:06.065Z,1.65
2023-05-22T19:54:34.097Z,1.48
2023-05-22T19:57:02.115Z,1.60
2023-05-22T19:59:30.714Z,1.58
2023-05-22T20:01:58.891Z,1.70
2023-05-22T20:04:28.292Z,1.45
2023-05-22T20:06:58.672Z,1.55
2023-05-22T20:09:26.973Z,1.25
2023-05-22T20:11:56.996Z,1.73
2023-05-22T20:14:25.046Z,1.70
2023-05-22T20:16:54.325Z,1.70
2023-05-22T20:19:24.256Z,1.95
2023-05-22T20:21:54.027Z,1.70
2023-05-22T20:24:22.010Z,1.98
2023-05-22T20:26:50.072Z,1.60
2023-05-22T20:29:18.552Z,1.80
2023-05-22T20:31:46.932Z,1.98
2023-05-22T20:34:15.577Z,1.63
2023-05-22T20:36:46.570Z,1.92
2023-05-22T20:39:16.013Z,1.75
2023-05-22T20:41:43.995Z,1.73
2023-05-22T20:44:12.122Z,1.65
2023-05-22T20:46:40.410Z,1.70
2023-05-22T20:49:08.876Z,1.80
2023-05-22T20:51:36.949Z,1.83
2023-05-22T20:54:05.221Z,1.50
2023-05-22T20:56:34.540Z,1.55
2023-05-22T20:59:04.525Z,1.63
2023-05-22T21:01:32.630Z,1.75
2023-05-22T21:04:00.833Z,1.60
2023-05-22T21:06:28.921Z,1.70
2023-05-22T21:08:59.829Z,1.73
2023-05-22T21:11:27.896Z,1.70
2023-05-22T21:13:57.247Z,1.60
2023-05-22T21:16:25.761Z,1.60
2023-05-22T21:18:53.810Z,1.67
2023-05-22T21:21:21.794Z,1.60
2023-05-22T21:23:50.810Z,1.73
2023-05-22T21:26:22.333Z,1.40
2023-05-22T21:28:50.522Z,1.67
2023-05-22T21:31:19.977Z,1.70
2023-05-22T21:33:48.065Z,1.40
2023-05-22T21:36:16.154Z,1.60
2023-05-22T21:38:45.043Z,1.25
2023-05-22T21:41:13.062Z,1.50
2023-05-22T21:43:41.122Z,1.55
2023-05-22T21:46:09.297Z,1.48
2023-05-22T21:48:38.781Z,1.40
2023-05-22T21:51:07.043Z,1.30
2023-05-22T21:53:34.921Z,1.60
2023-05-22T21:56:03.032Z,1.65
2023-05-22T21:58:31.100Z,1.60
2023-05-22T22:01:01.622Z,1.25
2023-05-22T22:03:29.634Z,1.60
2023-05-22T22:05:59.746Z,1.70
2023-05-22T22:08:28.323Z,1.80
2023-05-22T22:10:58.301Z,1.27
2023-05-22T22:13:26.417Z,1.45
2023-05-22T22:15:54.959Z,1.45
2023-05-22T22:18:22.950Z,1.60
2023-05-22T22:20:54.080Z,1.73
2023-05-22T22:23:23.505Z,1.38
2023-05-22T22:25:51.407Z,1.42
2023-05-22T22:28:19.422Z,1.30
2023-05-22T22:30:47.888Z,1.67
2023-05-22T22:33:16.014Z,1.33
2023-05-22T22:35:44.161Z,1.50
2023-05-22T22:38:12.146Z,1.98
2023-05-22T22:40:41.836Z,1.40
2023-05-22T22:43:10.396Z,1.83
2023-05-22T22:45:39.889Z,1.58
2023-05-22T22:48:08.217Z,1.45
2023-05-22T22:50:36.185Z,1.10
2023-05-22T22:53:04.230Z,1.80
2023-05-22T22:55:32.299Z,1.70
2023-05-22T22:58:02.531Z,1.45
2023-05-22T23:00:30.665Z,1.40
2023-05-22T23:02:58.709Z,1.40
2023-05-22T23:05:26.963Z,1.50
2023-05-22T23:07:55.066Z,1.45
2023-05-22T23:10:23.338Z,1.58
2023-05-22T23:12:51.340Z,1.50
2023-05-22T23:15:21.282Z,1.35
2023-05-22T23:17:51.604Z,1.70
2023-05-22T23:20:19.884Z,1.50
2023-05-22T23:22:47.885Z,1.30
2023-05-22T23:25:15.875Z,1.35
2023-05-22T23:27:44.035Z,1.73
2023-05-22T23:30:12.854Z,1.50
2023-05-22T23:32:42.293Z,1.77
2023-05-22T23:35:11.193Z,1.30
2023-05-22T23:37:39.230Z,1.55
2023-05-22T23:40:08.859Z,1.23
2023-05-22T23:42:37.466Z,1.60
2023-05-22T23:45:06.320Z,1.42
2023-05-22T23:47:34.295Z,1.33
2023-05-22T23:50:03.786Z,1.33
2023-05-22T23:52:32.106Z,1.30
2023-05-22T23:55:00.721Z,1.35
2023-05-22T23:57:28.860Z,1.50
2023-05-22T23:59:56.916Z,1.52
